createdAt,value
2023-04-03T00:00:41.075Z,42.71
2023-04-03T00:01:41.131Z,42.25
2023-04-03T00:02:41.253Z,42.16
2023-04-03T00:03:41.058Z,42.36
2023-04-03T00:04:41.201Z,43.38
2023-04-03T00:05:41.030Z,43.38
2023-04-03T00:06:41.006Z,44.54
2023-04-03T00:07:40.995Z,43.91
2023-04-03T00:08:40.978Z,42.84
2023-04-03T00:09:40.972Z,43.38
2023-04-03T00:10:40.969Z,43.41
2023-04-03T00:11:40.952Z,42.89
2023-04-03T00:12:40.941Z,42.03
2023-04-03T00:13:40.956Z,42.44
2023-04-03T00:14:40.918Z,42.53
2023-04-03T00:15:40.931Z,42.42
2023-04-03T00:16:40.950Z,43.04
2023-04-03T00:17:40.922Z,43.01
2023-04-03T00:18:40.882Z,41.95
2023-04-03T00:19:40.866Z,41.99
2023-04-03T00:20:40.863Z,42.44
2023-04-03T00:21:40.858Z,42.93
2023-04-03T00:22:40.839Z,42.78
2023-04-03T00:23:40.828Z,42.28
2023-04-03T00:24:40.813Z,43.11
2023-04-03T00:25:40.810Z,43.42
2023-04-03T00:26:40.802Z,43.14
2023-04-03T00:27:40.784Z,42.81
2023-04-03T00:28:40.771Z,43.34
2023-04-03T00:29:40.774Z,43.43
2023-04-03T00:30:40.855Z,42.50
2023-04-03T00:31:40.750Z,43.09
2023-04-03T00:32:40.766Z,43.07
2023-04-03T00:33:40.721Z,43.14
2023-04-03T00:34:40.710Z,43.43
2023-04-03T00:35:40.789Z,43.23
2023-04-03T00:36:40.747Z,43.10
2023-04-03T00:37:40.679Z,43.26
2023-04-03T00:38:40.717Z,42.80
2023-04-03T00:39:40.656Z,42.75
2023-04-03T00:40:40.665Z,42.51
2023-04-03T00:41:40.645Z,42.96
2023-04-03T00:42:40.621Z,43.15
2023-04-03T00:43:40.615Z,42.83
2023-04-03T00:44:40.603Z,43.54
2023-04-03T00:45:40.591Z,44.19
2023-04-03T00:46:40.697Z,43.03
2023-04-03T00:47:40.575Z,43.28
2023-04-03T00:48:40.557Z,42.47
2023-04-03T00:49:40.552Z,42.57
2023-04-03T00:50:40.531Z,42.68
2023-04-03T00:51:40.541Z,42.92
2023-04-03T00:52:40.517Z,42.89
2023-04-03T00:53:40.510Z,43.19
2023-04-03T00:54:40.489Z,43.34
2023-04-03T00:55:40.495Z,44.12
2023-04-03T00:56:40.481Z,44.35
2023-04-03T00:57:40.461Z,44.59
2023-04-03T00:58:40.450Z,44.37
2023-04-03T00:59:40.441Z,44.17
2023-04-03T01:00:40.423Z,43.56
2023-04-03T01:01:40.477Z,44.15
2023-04-03T01:02:40.433Z,43.94
2023-04-03T01:03:40.417Z,44.18
2023-04-03T01:04:40.530Z,43.61
2023-04-03T01:05:40.382Z,47.31
2023-04-03T01:06:40.382Z,44.13
2023-04-03T01:07:40.365Z,43.17
2023-04-03T01:08:40.344Z,43.94
2023-04-03T01:09:40.335Z,44.46
2023-04-03T01:10:40.327Z,44.52
2023-04-03T01:11:40.329Z,44.05
2023-04-03T01:12:40.302Z,45.63
2023-04-03T01:13:41.296Z,45.26
2023-04-03T01:14:40.296Z,44.24
2023-04-03T01:15:40.295Z,43.55
2023-04-03T01:16:40.274Z,43.86
2023-04-03T01:17:40.303Z,44.22
2023-04-03T01:18:40.240Z,46.18
2023-04-03T01:19:40.231Z,44.15
2023-04-03T01:20:40.307Z,44.86
2023-04-03T01:21:40.233Z,44.67
2023-04-03T01:22:40.199Z,44.43
2023-04-03T01:23:40.197Z,45.56
2023-04-03T01:24:40.290Z,49.87
2023-04-03T01:25:40.174Z,44.31
2023-04-03T01:26:40.163Z,43.74
2023-04-03T01:27:40.146Z,45.11
2023-04-03T01:28:40.141Z,49.04
2023-04-03T01:29:40.145Z,44.68
2023-04-03T01:30:40.115Z,45.23
2023-04-03T01:31:40.156Z,47.29
2023-04-03T01:32:40.147Z,44.69
2023-04-03T01:33:40.099Z,44.77
2023-04-03T01:34:40.088Z,44.52
2023-04-03T01:35:40.099Z,43.98
2023-04-03T01:36:40.064Z,43.78
2023-04-03T01:37:40.048Z,43.90
2023-04-03T01:38:40.034Z,44.13
2023-04-03T01:39:40.023Z,44.72
2023-04-03T01:40:40.011Z,44.85
2023-04-03T01:41:40.014Z,44.54
2023-04-03T01:42:39.997Z,44.16
2023-04-03T01:43:39.985Z,44.71
2023-04-03T01:44:39.992Z,46.40
2023-04-03T01:45:40.003Z,44.72
2023-04-03T01:46:39.952Z,44.16
2023-04-03T01:47:40.009Z,43.81
2023-04-03T01:48:39.928Z,43.17
2023-04-03T01:49:39.910Z,44.01
2023-04-03T01:50:39.906Z,44.70
2023-04-03T01:51:39.900Z,45.70
2023-04-03T01:52:39.885Z,44.92
2023-04-03T01:53:39.865Z,44.67
2023-04-03T01:54:39.867Z,45.26
2023-04-03T01:55:39.847Z,45.04
2023-04-03T01:56:39.848Z,44.58
2023-04-03T01:57:39.823Z,44.51
2023-04-03T01:58:39.819Z,43.78
2023-04-03T01:59:39.803Z,43.72
2023-04-03T02:00:39.794Z,46.54
2023-04-03T02:01:39.861Z,45.12
2023-04-03T02:02:39.803Z,44.40
2023-04-03T02:03:39.778Z,44.39
2023-04-03T02:04:39.755Z,44.44
2023-04-03T02:05:39.736Z,44.09
2023-04-03T02:06:39.745Z,44.19
2023-04-03T02:07:39.729Z,44.43
2023-04-03T02:08:39.720Z,44.46
2023-04-03T02:09:39.694Z,44.71
2023-04-03T02:10:39.689Z,44.82
2023-04-03T02:11:39.672Z,44.56
2023-04-03T02:12:39.673Z,46.58
2023-04-03T02:13:39.647Z,45.08
2023-04-03T02:14:39.645Z,44.48
2023-04-03T02:15:39.629Z,46.16
2023-04-03T02:16:39.683Z,45.12
2023-04-03T02:17:39.642Z,43.96
2023-04-03T02:18:39.601Z,43.97
2023-04-03T02:19:39.581Z,44.55
2023-04-03T02:20:39.791Z,44.09
2023-04-03T02:21:39.558Z,44.07
2023-04-03T02:22:39.563Z,44.07
2023-04-03T02:23:39.537Z,44.00
2023-04-03T02:24:39.530Z,43.80
2023-04-03T02:25:39.515Z,46.43
2023-04-03T02:26:39.504Z,44.49
2023-04-03T02:27:39.503Z,43.87
2023-04-03T02:28:39.482Z,44.37
2023-04-03T02:29:39.473Z,44.99
2023-04-03T02:30:39.978Z,44.88
2023-04-03T02:31:39.452Z,44.42
2023-04-03T02:32:39.488Z,44.48
2023-04-03T02:33:39.427Z,44.33
2023-04-03T02:34:39.420Z,45.70
2023-04-03T02:35:39.452Z,43.59
2023-04-03T02:36:39.398Z,47.11
2023-04-03T02:37:39.394Z,43.60
2023-04-03T02:38:39.377Z,44.10
2023-04-03T02:39:39.362Z,44.11
2023-04-03T02:40:39.554Z,43.97
2023-04-03T02:41:39.359Z,47.21
2023-04-03T02:42:39.348Z,46.05
2023-04-03T02:43:39.326Z,43.60
2023-04-03T02:44:39.314Z,45.70
2023-04-03T02:45:39.303Z,44.28
2023-04-03T02:46:39.299Z,44.27
2023-04-03T02:47:39.324Z,44.14
2023-04-03T02:48:39.275Z,44.67
2023-04-03T02:49:39.267Z,44.57
2023-04-03T02:50:39.264Z,44.50
2023-04-03T02:51:39.248Z,44.01
2023-04-03T02:52:39.247Z,46.87
2023-04-03T02:53:39.224Z,44.78
2023-04-03T02:54:39.216Z,44.10
2023-04-03T02:55:39.208Z,44.43
2023-04-03T02:56:39.213Z,44.79
2023-04-03T02:57:39.188Z,45.18
2023-04-03T02:58:39.168Z,45.40
2023-04-03T02:59:39.160Z,45.55
2023-04-03T03:00:39.429Z,49.51
2023-04-03T03:01:39.285Z,44.45
2023-04-03T03:02:39.199Z,44.85
2023-04-03T03:03:39.113Z,44.39
2023-04-03T03:04:39.130Z,44.11
2023-04-03T03:05:39.089Z,44.25
2023-04-03T03:06:39.081Z,43.80
2023-04-03T03:07:39.086Z,47.73
2023-04-03T03:08:39.070Z,50.68
2023-04-03T03:09:39.045Z,47.86
2023-04-03T03:10:39.280Z,44.06
2023-04-03T03:11:39.035Z,44.53
2023-04-03T03:12:39.044Z,44.51
2023-04-03T03:13:39.044Z,46.53
2023-04-03T03:14:39.033Z,49.68
2023-04-03T03:15:39.039Z,44.41
2023-04-03T03:16:38.983Z,51.82
2023-04-03T03:17:39.049Z,48.48
2023-04-03T03:18:38.955Z,53.32
2023-04-03T03:19:38.957Z,47.79
2023-04-03T03:20:39.020Z,47.86
2023-04-03T03:21:38.952Z,51.08
2023-04-03T03:22:39.023Z,52.03
2023-04-03T03:23:38.902Z,51.91
2023-04-03T03:24:38.895Z,51.04
2023-04-03T03:25:39.082Z,50.44
2023-04-03T03:26:38.875Z,47.55
2023-04-03T03:27:38.876Z,47.77
2023-04-03T03:28:38.861Z,47.54
2023-04-03T03:29:38.845Z,48.08
2023-04-03T03:30:38.844Z,45.06
2023-04-03T03:31:40.030Z,44.30
2023-04-03T03:32:40.001Z,47.03
2023-04-03T03:33:39.929Z,45.73
2023-04-03T03:34:39.917Z,45.49
2023-04-03T03:35:40.198Z,50.38
2023-04-03T03:36:39.899Z,47.45
2023-04-03T03:37:39.908Z,45.84
2023-04-03T03:38:39.873Z,50.20
2023-04-03T03:39:39.860Z,49.11
2023-04-03T03:40:39.859Z,49.41
2023-04-03T03:41:39.834Z,47.69
2023-04-03T03:42:39.842Z,44.48
2023-04-03T03:43:39.824Z,47.20
2023-04-03T03:44:39.816Z,44.43
2023-04-03T03:45:39.840Z,47.63
2023-04-03T03:46:39.821Z,45.78
2023-04-03T03:47:39.830Z,52.93
2023-04-03T03:48:39.774Z,47.14
2023-04-03T03:49:39.788Z,54.15
2023-04-03T03:50:39.766Z,48.17
2023-04-03T03:51:39.744Z,45.60
2023-04-03T03:52:39.746Z,47.56
2023-04-03T03:53:39.729Z,52.32
2023-04-03T03:54:39.725Z,51.01
2023-04-03T03:55:39.932Z,47.13
2023-04-03T03:56:39.699Z,47.03
2023-04-03T03:57:39.701Z,47.10
2023-04-03T03:58:39.676Z,47.62
2023-04-03T03:59:39.664Z,51.99
2023-04-03T04:00:39.657Z,53.12
2023-04-03T04:01:39.679Z,55.97
2023-04-03T04:02:39.820Z,52.86
2023-04-03T04:03:39.787Z,50.46
2023-04-03T04:04:39.624Z,53.52
2023-04-03T04:05:40.060Z,51.22
2023-04-03T04:06:39.614Z,49.12
2023-04-03T04:07:39.604Z,51.70
2023-04-03T04:08:39.589Z,54.99
2023-04-03T04:09:39.584Z,55.62
2023-04-03T04:10:39.561Z,55.54
2023-04-03T04:11:39.556Z,51.94
2023-04-03T04:12:39.551Z,54.31
2023-04-03T04:13:39.558Z,53.90
2023-04-03T04:14:39.530Z,53.00
2023-04-03T04:15:39.839Z,54.27
2023-04-03T04:16:39.556Z,54.57
2023-04-03T04:17:39.551Z,54.07
2023-04-03T04:18:39.492Z,53.13
2023-04-03T04:19:39.475Z,53.78
2023-04-03T04:20:39.471Z,56.58
2023-04-03T04:21:39.456Z,55.42
2023-04-03T04:22:39.459Z,53.21
2023-04-03T04:23:39.450Z,57.22
2023-04-03T04:24:39.930Z,54.88
2023-04-03T04:25:39.505Z,56.95
2023-04-03T04:26:39.417Z,58.39
2023-04-03T04:27:39.410Z,54.76
2023-04-03T04:28:39.394Z,51.41
2023-04-03T04:29:39.391Z,55.61
2023-04-03T04:30:39.415Z,54.69
2023-04-03T04:31:39.372Z,54.16
2023-04-03T04:32:39.410Z,52.72
2023-04-03T04:33:39.348Z,54.54
2023-04-03T04:34:39.355Z,52.71
2023-04-03T04:35:39.744Z,50.40
2023-04-03T04:36:39.487Z,54.74
2023-04-03T04:37:39.320Z,50.34
2023-04-03T04:38:39.294Z,52.15
2023-04-03T04:39:39.288Z,49.59
2023-04-03T04:40:39.275Z,52.68
2023-04-03T04:41:39.265Z,49.44
2023-04-03T04:42:39.271Z,50.39
2023-04-03T04:43:39.257Z,51.82
2023-04-03T04:44:39.245Z,52.06
2023-04-03T04:45:39.579Z,48.70
2023-04-03T04:46:40.231Z,51.87
2023-04-03T04:47:39.273Z,57.12
2023-04-03T04:48:39.203Z,52.96
2023-04-03T04:49:39.182Z,56.00
2023-04-03T04:50:39.210Z,52.47
2023-04-03T04:51:51.059Z,53.07
2023-04-03T04:52:41.182Z,55.70
2023-04-03T04:53:39.188Z,54.57
2023-04-03T04:54:39.150Z,53.10
2023-04-03T04:55:39.302Z,49.60
2023-04-03T04:56:39.141Z,49.96
2023-04-03T04:57:39.239Z,53.93
2023-04-03T04:58:39.098Z,51.78
2023-04-03T04:59:39.116Z,53.19
2023-04-03T05:00:39.117Z,54.49
2023-04-03T05:01:39.130Z,53.87
2023-04-03T05:02:39.114Z,56.28
2023-04-03T05:03:39.065Z,58.60
2023-04-03T05:04:39.090Z,53.08
2023-04-03T05:05:39.538Z,51.26
2023-04-03T05:06:39.037Z,53.35
2023-04-03T05:07:39.033Z,51.46
2023-04-03T05:08:39.030Z,50.56
2023-04-03T05:09:38.995Z,48.34
2023-04-03T05:10:38.990Z,50.56
2023-04-03T05:11:38.974Z,48.05
2023-04-03T05:12:38.982Z,49.54
2023-04-03T05:13:38.949Z,51.93
2023-04-03T05:14:38.948Z,49.40
2023-04-03T05:15:39.453Z,55.59
2023-04-03T05:16:38.926Z,52.54
2023-04-03T05:17:38.930Z,49.81
2023-04-03T05:18:38.916Z,50.01
2023-04-03T05:19:38.891Z,49.94
2023-04-03T05:20:38.891Z,52.62
2023-04-03T05:21:38.889Z,56.83
2023-04-03T05:22:38.881Z,53.88
2023-04-03T05:23:38.874Z,53.10
2023-04-03T05:24:38.864Z,46.45
2023-04-03T05:25:39.112Z,51.86
2023-04-03T05:26:38.833Z,52.02
2023-04-03T05:27:38.826Z,49.90
2023-04-03T05:28:38.826Z,50.22
2023-04-03T05:29:38.805Z,54.33
2023-04-03T05:30:38.798Z,52.29
2023-04-03T05:31:38.867Z,50.28
2023-04-03T05:32:38.809Z,48.27
2023-04-03T05:33:38.772Z,48.08
2023-04-03T05:34:38.755Z,51.42
2023-04-03T05:35:39.002Z,54.27
2023-04-03T05:36:38.740Z,53.73
2023-04-03T05:37:38.720Z,50.42
2023-04-03T05:38:38.743Z,54.35
2023-04-03T05:39:38.708Z,56.50
2023-04-03T05:40:38.703Z,48.63
2023-04-03T05:41:38.685Z,52.09
2023-04-03T05:42:38.686Z,49.15
2023-04-03T05:43:38.680Z,56.09
2023-04-03T05:44:38.653Z,53.36
2023-04-03T05:45:38.658Z,52.38
2023-04-03T05:46:38.637Z,53.87
2023-04-03T05:47:38.675Z,49.69
2023-04-03T05:48:38.625Z,50.39
2023-04-03T05:49:38.600Z,55.20
2023-04-03T05:50:38.595Z,53.69
2023-04-03T05:51:38.585Z,52.28
2023-04-03T05:52:38.580Z,55.12
2023-04-03T05:53:38.683Z,57.97
2023-04-03T05:54:38.556Z,59.83
2023-04-03T05:55:38.796Z,49.95
2023-04-03T05:56:38.536Z,50.41
2023-04-03T05:57:38.638Z,51.81
2023-04-03T05:58:38.535Z,51.22
2023-04-03T05:59:38.569Z,53.29
2023-04-03T06:00:38.556Z,49.13
2023-04-03T06:01:39.483Z,54.66
2023-04-03T06:02:38.564Z,50.91
2023-04-03T06:03:41.541Z,47.06
2023-04-03T06:04:44.094Z,49.47
2023-04-03T06:05:38.664Z,50.07
2023-04-03T06:06:38.557Z,48.37
2023-04-03T06:07:38.454Z,51.08
2023-04-03T06:08:38.548Z,54.24
2023-04-03T06:09:38.459Z,52.77
2023-04-03T06:10:38.712Z,53.23
2023-04-03T06:11:38.395Z,48.47
2023-04-03T06:12:38.375Z,47.68
2023-04-03T06:13:38.387Z,52.27
2023-04-03T06:14:38.357Z,51.53
2023-04-03T06:15:38.354Z,54.24
2023-04-03T06:16:39.621Z,50.88
2023-04-03T06:17:38.344Z,50.77
2023-04-03T06:18:38.343Z,49.77
2023-04-03T06:19:38.314Z,53.80
2023-04-03T06:20:38.689Z,51.32
2023-04-03T06:21:38.289Z,49.25
2023-04-03T06:22:38.290Z,50.43
2023-04-03T06:23:38.266Z,53.94
2023-04-03T06:24:38.253Z,51.48
2023-04-03T06:25:38.252Z,50.66
2023-04-03T06:26:38.247Z,53.78
2023-04-03T06:27:38.226Z,50.30
2023-04-03T06:28:38.240Z,51.22
2023-04-03T06:29:38.226Z,50.38
2023-04-03T06:30:38.475Z,52.61
2023-04-03T06:31:38.188Z,51.54
2023-04-03T06:32:38.228Z,50.41
2023-04-03T06:33:38.176Z,52.59
2023-04-03T06:34:38.139Z,47.07
2023-04-03T06:35:38.296Z,53.01
2023-04-03T06:36:38.128Z,52.03
2023-04-03T06:37:38.145Z,51.33
2023-04-03T06:38:38.132Z,50.20
2023-04-03T06:39:38.193Z,51.09
2023-04-03T06:40:38.279Z,51.46
2023-04-03T06:41:38.087Z,53.79
2023-04-03T06:42:38.060Z,50.83
2023-04-03T06:43:38.064Z,51.55
2023-04-03T06:44:38.043Z,49.51
2023-04-03T06:45:38.191Z,47.12
2023-04-03T06:46:38.059Z,53.61
2023-04-03T06:47:38.025Z,47.83
2023-04-03T06:48:38.031Z,48.69
2023-04-03T06:49:37.995Z,52.31
2023-04-03T06:50:37.975Z,53.16
2023-04-03T06:51:37.968Z,49.00
2023-04-03T06:52:37.960Z,47.85
2023-04-03T06:53:37.960Z,50.98
2023-04-03T06:54:37.939Z,51.48
2023-04-03T06:55:38.020Z,51.88
2023-04-03T06:56:37.958Z,48.32
2023-04-03T06:57:37.939Z,47.22
2023-04-03T06:58:38.904Z,44.84
2023-04-03T06:59:37.919Z,50.01
2023-04-03T07:00:37.881Z,51.02
2023-04-03T07:01:38.586Z,49.93
2023-04-03T07:02:38.234Z,48.68
2023-04-03T07:03:37.862Z,52.82
2023-04-03T07:04:37.870Z,50.96
2023-04-03T07:05:37.990Z,49.48
2023-04-03T07:06:37.819Z,50.00
2023-04-03T07:07:38.324Z,50.34
2023-04-03T07:08:37.809Z,47.23
2023-04-03T07:09:37.781Z,48.38
2023-04-03T07:10:37.775Z,50.87
2023-04-03T07:11:37.757Z,51.98
2023-04-03T07:12:37.746Z,47.63
2023-04-03T07:13:37.745Z,53.59
2023-04-03T07:14:37.724Z,51.57
2023-04-03T07:15:37.851Z,50.25
2023-04-03T07:16:39.989Z,50.16
2023-04-03T07:17:37.763Z,48.23
2023-04-03T07:18:37.694Z,48.54
2023-04-03T07:19:37.684Z,49.63
2023-04-03T07:20:37.657Z,53.22
2023-04-03T07:21:37.651Z,50.67
2023-04-03T07:22:37.644Z,51.43
2023-04-03T07:23:37.645Z,53.73
2023-04-03T07:24:37.647Z,48.34
2023-04-03T07:25:37.842Z,48.95
2023-04-03T07:26:37.599Z,51.58
2023-04-03T07:27:37.590Z,47.42
2023-04-03T07:28:37.732Z,46.48
2023-04-03T07:29:37.577Z,52.02
2023-04-03T07:30:37.575Z,52.60
2023-04-03T07:31:37.572Z,47.22
2023-04-03T07:32:37.601Z,54.42
2023-04-03T07:33:37.537Z,51.38
2023-04-03T07:34:37.534Z,52.52
2023-04-03T07:35:37.932Z,47.00
2023-04-03T07:36:37.497Z,47.97
2023-04-03T07:37:37.502Z,51.91
2023-04-03T07:38:37.486Z,52.45
2023-04-03T07:39:37.468Z,50.68
2023-04-03T07:40:37.477Z,51.35
2023-04-03T07:41:37.460Z,49.87
2023-04-03T07:42:37.461Z,53.66
2023-04-03T07:43:37.439Z,51.60
2023-04-03T07:44:37.412Z,52.79
2023-04-03T07:45:37.726Z,51.62
2023-04-03T07:46:37.393Z,51.23
2023-04-03T07:47:37.417Z,54.38
2023-04-03T07:48:37.393Z,50.14
2023-04-03T07:49:37.372Z,47.41
2023-04-03T07:50:37.372Z,55.55
2023-04-03T07:51:37.345Z,52.89
2023-04-03T07:52:37.338Z,50.94
2023-04-03T07:53:37.343Z,48.10
2023-04-03T07:54:37.323Z,51.11
2023-04-03T07:55:37.566Z,48.08
2023-04-03T07:56:37.301Z,51.11
2023-04-03T07:57:37.329Z,49.49
2023-04-03T07:58:37.289Z,51.08
2023-04-03T07:59:37.264Z,50.06
2023-04-03T08:00:37.332Z,50.36
2023-04-03T08:01:37.242Z,52.06
2023-04-03T08:02:37.243Z,52.67
2023-04-03T08:03:37.289Z,49.16
2023-04-03T08:04:37.291Z,48.65
2023-04-03T08:05:37.358Z,46.76
2023-04-03T08:06:45.998Z,45.07
2023-04-03T08:07:39.178Z,48.75
2023-04-03T08:08:37.168Z,49.03
2023-04-03T08:09:37.168Z,45.38
2023-04-03T08:10:37.144Z,48.58
2023-04-03T08:11:37.133Z,50.14
2023-04-03T08:12:37.124Z,51.65
2023-04-03T08:13:37.116Z,50.59
2023-04-03T08:14:37.120Z,48.40
2023-04-03T08:15:37.181Z,51.03
2023-04-03T08:16:37.205Z,52.21
2023-04-03T08:17:37.114Z,49.00
2023-04-03T08:18:37.057Z,51.24
2023-04-03T08:19:37.061Z,51.24
2023-04-03T08:20:37.037Z,50.45
2023-04-03T08:21:37.038Z,51.41
2023-04-03T08:22:37.019Z,45.96
2023-04-03T08:23:37.014Z,47.66
2023-04-03T08:24:39.194Z,48.01
2023-04-03T08:25:37.105Z,49.07
2023-04-03T08:26:36.982Z,51.01
2023-04-03T08:27:36.976Z,50.35
2023-04-03T08:28:36.967Z,54.28
2023-04-03T08:29:36.995Z,49.68
2023-04-03T08:30:37.062Z,51.45
2023-04-03T08:31:36.929Z,48.14
2023-04-03T08:32:37.017Z,46.91
2023-04-03T08:33:36.910Z,53.91
2023-04-03T08:34:36.928Z,51.50
2023-04-03T08:35:38.226Z,50.10
2023-04-03T08:36:37.880Z,53.30
2023-04-03T08:37:37.532Z,45.56
2023-04-03T08:38:36.864Z,50.63
2023-04-03T08:39:36.858Z,52.85
2023-04-03T08:40:36.849Z,52.21
2023-04-03T08:41:36.858Z,51.40
2023-04-03T08:42:36.848Z,51.86
2023-04-03T08:43:36.815Z,49.01
2023-04-03T08:44:37.380Z,54.53
2023-04-03T08:45:36.974Z,53.33
2023-04-03T08:46:36.892Z,49.29
2023-04-03T08:47:36.787Z,48.22
2023-04-03T08:48:36.847Z,48.54
2023-04-03T08:49:36.819Z,51.36
2023-04-03T08:50:36.737Z,48.14
2023-04-03T08:51:36.729Z,51.97
2023-04-03T08:52:36.719Z,52.04
2023-04-03T08:53:36.710Z,49.91
2023-04-03T08:54:36.716Z,49.88
2023-04-03T08:55:36.928Z,49.92
2023-04-03T08:56:36.678Z,48.74
2023-04-03T08:57:36.797Z,48.42
2023-04-03T08:58:36.654Z,48.62
2023-04-03T08:59:36.665Z,54.48
2023-04-03T09:00:36.649Z,50.11
2023-04-03T09:01:36.644Z,49.73
2023-04-03T09:02:36.674Z,50.62
2023-04-03T09:03:36.659Z,51.96
2023-04-03T09:04:36.698Z,48.67
2023-04-03T09:05:36.833Z,48.34
2023-04-03T09:06:37.300Z,47.02
2023-04-03T09:07:36.562Z,48.10
2023-04-03T09:08:36.550Z,55.13
2023-04-03T09:09:36.594Z,49.14
2023-04-03T09:10:36.721Z,48.79
2023-04-03T09:11:36.552Z,54.47
2023-04-03T09:12:36.526Z,52.34
2023-04-03T09:13:36.525Z,48.25
2023-04-03T09:14:36.510Z,46.23
2023-04-03T09:15:39.515Z,47.52
2023-04-03T09:16:37.487Z,50.85
2023-04-03T09:17:36.548Z,52.07
2023-04-03T09:18:36.463Z,52.12
2023-04-03T09:19:36.442Z,48.17
2023-04-03T09:20:36.786Z,47.84
2023-04-03T09:21:36.430Z,47.92
2023-04-03T09:22:41.976Z,49.41
2023-04-03T09:23:38.433Z,48.24
2023-04-03T09:24:36.410Z,52.78
2023-04-03T09:25:36.410Z,51.08
2023-04-03T09:26:36.420Z,50.60
2023-04-03T09:27:36.400Z,51.67
2023-04-03T09:28:42.902Z,51.34
2023-04-03T09:29:38.374Z,55.03
2023-04-03T09:30:36.534Z,45.76
2023-04-03T09:31:36.362Z,45.50
2023-04-03T09:32:36.385Z,50.40
2023-04-03T09:33:36.342Z,46.30
2023-04-03T09:34:36.326Z,52.24
2023-04-03T09:35:47.442Z,48.03
2023-04-03T09:36:38.386Z,52.24
2023-04-03T09:37:36.276Z,47.55
2023-04-03T09:38:36.282Z,48.47
2023-04-03T09:39:36.262Z,49.75
2023-04-03T09:40:36.709Z,53.08
2023-04-03T09:41:36.242Z,51.87
2023-04-03T09:42:36.859Z,53.83
2023-04-03T09:43:36.185Z,51.81
2023-04-03T09:44:36.223Z,50.15
2023-04-03T09:45:36.215Z,52.55
2023-04-03T09:46:36.239Z,52.71
2023-04-03T09:47:36.249Z,48.92
2023-04-03T09:48:36.181Z,48.26
2023-04-03T09:49:36.190Z,48.38
2023-04-03T09:50:36.338Z,47.86
2023-04-03T09:51:36.166Z,47.84
2023-04-03T09:52:37.627Z,47.67
2023-04-03T09:53:37.135Z,49.21
2023-04-03T09:54:36.140Z,48.74
2023-04-03T09:55:36.104Z,45.40
2023-04-03T09:56:36.087Z,46.90
2023-04-03T09:57:36.117Z,45.68
2023-04-03T09:58:46.977Z,45.10
2023-04-03T09:59:38.068Z,46.83
2023-04-03T10:00:36.295Z,46.71
2023-04-03T10:01:36.107Z,47.54
2023-04-03T10:02:36.081Z,50.05
2023-04-03T10:03:36.011Z,50.05
2023-04-03T10:04:36.065Z,53.85
2023-04-03T10:05:36.018Z,48.64
2023-04-03T10:06:36.036Z,56.82
2023-04-03T10:07:36.007Z,54.10
2023-04-03T10:08:36.092Z,50.77
2023-04-03T10:09:35.947Z,51.89
2023-04-03T10:10:36.944Z,49.91
2023-04-03T10:11:35.946Z,48.51
2023-04-03T10:12:35.920Z,50.64
2023-04-03T10:13:45.201Z,50.41
2023-04-03T10:14:37.939Z,48.46
2023-04-03T10:15:35.929Z,50.34
2023-04-03T10:16:35.948Z,51.39
2023-04-03T10:17:35.955Z,48.34
2023-04-03T10:18:35.920Z,48.92
2023-04-03T10:19:35.868Z,51.94
2023-04-03T10:20:35.949Z,54.20
2023-04-03T10:21:35.855Z,51.14
2023-04-03T10:22:35.851Z,47.73
2023-04-03T10:23:35.885Z,51.45
2023-04-03T10:24:35.906Z,49.50
2023-04-03T10:25:35.848Z,47.48
2023-04-03T10:26:35.834Z,47.63
2023-04-03T10:27:35.800Z,48.96
2023-04-03T10:28:35.827Z,51.99
2023-04-03T10:29:35.820Z,49.05
2023-04-03T10:30:36.064Z,51.61
2023-04-03T10:31:35.811Z,50.06
2023-04-03T10:32:35.832Z,48.16
2023-04-03T10:33:35.722Z,52.36
2023-04-03T10:34:35.717Z,48.42
2023-04-03T10:35:35.837Z,49.43
2023-04-03T10:36:35.707Z,49.64
2023-04-03T10:37:35.782Z,52.31
2023-04-03T10:38:35.696Z,52.22
2023-04-03T10:39:35.734Z,52.82
2023-04-03T10:40:36.104Z,53.08
2023-04-03T10:41:35.683Z,53.41
2023-04-03T10:42:35.640Z,50.49
2023-04-03T10:43:35.692Z,51.26
2023-04-03T10:44:35.673Z,52.32
2023-04-03T10:45:35.660Z,51.11
2023-04-03T10:46:35.712Z,46.67
2023-04-03T10:47:37.227Z,50.83
2023-04-03T10:48:35.597Z,55.30
2023-04-03T10:49:35.569Z,48.72
2023-04-03T10:50:35.847Z,50.89
2023-04-03T10:51:35.563Z,51.23
2023-04-03T10:52:35.545Z,50.09
2023-04-03T10:53:35.538Z,50.28
2023-04-03T10:54:35.531Z,52.40
2023-04-03T10:55:35.599Z,46.86
2023-04-03T10:56:35.654Z,47.50
2023-04-03T10:57:35.586Z,52.67
2023-04-03T10:58:35.492Z,55.81
2023-04-03T10:59:35.457Z,48.48
2023-04-03T11:00:35.770Z,46.76
2023-04-03T11:01:35.517Z,46.90
2023-04-03T11:02:35.511Z,52.65
2023-04-03T11:03:35.583Z,51.52
2023-04-03T11:04:35.428Z,49.43
2023-04-03T11:05:35.479Z,44.91
2023-04-03T11:06:35.435Z,46.21
2023-04-03T11:07:35.397Z,49.08
2023-04-03T11:08:35.445Z,45.87
2023-04-03T11:09:35.387Z,50.16
2023-04-03T11:10:35.384Z,51.61
2023-04-03T11:11:35.401Z,49.41
2023-04-03T11:12:35.433Z,50.59
2023-04-03T11:13:35.390Z,54.19
2023-04-03T11:14:35.388Z,48.99
2023-04-03T11:15:35.355Z,54.15
2023-04-03T11:16:43.591Z,49.59
2023-04-03T11:17:37.442Z,48.89
2023-04-03T11:18:35.281Z,50.76
2023-04-03T11:19:35.266Z,47.73
2023-04-03T11:20:35.270Z,46.43
2023-04-03T11:21:35.287Z,48.94
2023-04-03T11:22:35.251Z,53.72
2023-04-03T11:23:46.053Z,48.48
2023-04-03T11:24:37.262Z,54.30
2023-04-03T11:25:35.448Z,54.17
2023-04-03T11:26:35.250Z,47.59
2023-04-03T11:27:35.180Z,49.00
2023-04-03T11:28:35.287Z,48.00
2023-04-03T11:29:35.972Z,44.95
2023-04-03T11:30:36.198Z,52.46
2023-04-03T11:31:35.298Z,48.12
2023-04-03T11:32:35.253Z,49.84
2023-04-03T11:33:35.221Z,49.27
2023-04-03T11:34:35.258Z,49.80
2023-04-03T11:35:35.240Z,51.47
2023-04-03T11:36:36.911Z,50.89
2023-04-03T11:37:35.142Z,51.89
2023-04-03T11:38:35.189Z,49.70
2023-04-03T11:39:35.192Z,48.94
2023-04-03T11:40:35.119Z,51.12
2023-04-03T11:41:35.131Z,51.42
2023-04-03T11:42:35.229Z,50.71
2023-04-03T11:43:35.076Z,52.24
2023-04-03T11:44:35.169Z,51.56
2023-04-03T11:45:35.102Z,47.60
2023-04-03T11:46:35.110Z,49.81
2023-04-03T11:47:35.087Z,48.82
2023-04-03T11:48:35.066Z,51.28
2023-04-03T11:49:35.028Z,55.12
2023-04-03T11:50:35.052Z,54.58
2023-04-03T11:51:35.119Z,51.44
2023-04-03T11:52:35.098Z,47.43
2023-04-03T11:53:35.065Z,49.11
2023-04-03T11:54:42.124Z,50.84
2023-04-03T11:55:37.252Z,53.07
2023-04-03T11:56:34.929Z,51.52
2023-04-03T11:57:35.006Z,49.28
2023-04-03T11:58:34.925Z,48.74
2023-04-03T11:59:34.921Z,46.42
2023-04-03T12:00:34.968Z,47.58
2023-04-03T12:01:34.925Z,51.11
2023-04-03T12:02:41.156Z,48.36
2023-04-03T12:03:35.968Z,50.31
2023-04-03T12:04:34.891Z,49.04
2023-04-03T12:05:34.862Z,47.65
2023-04-03T12:06:34.831Z,47.76
2023-04-03T12:07:34.887Z,50.36
2023-04-03T12:08:34.873Z,50.15
2023-04-03T12:09:34.817Z,46.79
2023-04-03T12:10:34.814Z,48.64
2023-04-03T12:11:34.838Z,46.74
2023-04-03T12:12:34.825Z,48.89
2023-04-03T12:13:34.812Z,45.61
2023-04-03T12:14:34.795Z,49.52
2023-04-03T12:15:34.740Z,55.39
2023-04-03T12:16:34.963Z,49.51
2023-04-03T12:17:34.765Z,47.12
2023-04-03T12:18:34.730Z,49.83
2023-04-03T12:19:42.511Z,48.46
2023-04-03T12:20:36.783Z,48.53
2023-04-03T12:21:34.796Z,47.68
2023-04-03T12:22:34.719Z,51.35
2023-04-03T12:23:34.750Z,46.93
2023-04-03T12:24:34.721Z,48.50
2023-04-03T12:25:34.757Z,51.75
2023-04-03T12:26:45.588Z,48.29
2023-04-03T12:27:36.687Z,53.76
2023-04-03T12:28:34.645Z,47.72
2023-04-03T12:29:34.681Z,46.07
2023-04-03T12:30:34.601Z,49.47
2023-04-03T12:31:34.651Z,49.63
2023-04-03T12:32:34.696Z,46.48
2023-04-03T12:33:34.755Z,50.43
2023-04-03T12:34:34.726Z,46.56
2023-04-03T12:35:34.619Z,49.42
2023-04-03T12:36:34.568Z,46.40
2023-04-03T12:37:34.546Z,46.75
2023-04-03T12:38:34.512Z,47.06
2023-04-03T12:39:35.350Z,46.59
2023-04-03T12:40:34.506Z,48.26
2023-04-03T12:41:34.519Z,47.86
2023-04-03T12:42:34.522Z,46.24
2023-04-03T12:43:34.523Z,49.22
2023-04-03T12:44:35.494Z,47.08
2023-04-03T12:45:34.502Z,46.37
2023-04-03T12:46:34.507Z,44.72
2023-04-03T12:47:34.510Z,48.17
2023-04-03T12:48:34.514Z,49.56
2023-04-03T12:49:34.393Z,46.24
2023-04-03T12:50:34.382Z,47.50
2023-04-03T12:51:34.386Z,46.16
2023-04-03T12:52:34.394Z,46.81